createdAt,value
2023-01-17T00:01:10.135Z,0.80
2023-01-17T00:03:58.258Z,0.80
2023-01-17T00:06:43.764Z,1.00
2023-01-17T00:09:45.071Z,0.80
2023-01-17T00:12:12.490Z,1.00
2023-01-17T00:14:39.843Z,1.00
2023-01-17T00:17:07.164Z,0.97
2023-01-17T00:19:52.105Z,0.80
2023-01-17T00:22:39.523Z,0.90
2023-01-17T00:25:25.058Z,0.90
2023-01-17T00:27:51.353Z,0.80
2023-01-17T00:30:17.725Z,0.80
2023-01-17T00:32:44.012Z,0.90
2023-01-17T00:35:10.309Z,0.80
2023-01-17T00:37:36.618Z,0.83
2023-01-17T00:40:03.035Z,0.80
2023-01-17T00:42:30.633Z,0.70
2023-01-17T00:45:15.498Z,0.70
2023-01-17T00:48:02.823Z,0.60
2023-01-17T00:50:48.244Z,0.70
2023-01-17T00:53:33.067Z,0.87
2023-01-17T00:56:19.559Z,0.80
2023-01-17T00:59:05.686Z,0.80
2023-01-17T01:01:50.570Z,0.80
2023-01-17T01:04:36.120Z,0.77
2023-01-17T01:07:21.181Z,0.90
2023-01-17T01:10:05.970Z,0.70
2023-01-17T01:12:50.672Z,0.83
2023-01-17T01:15:37.109Z,0.83
2023-01-17T01:18:24.982Z,0.80
2023-01-17T01:21:09.815Z,0.77
2023-01-17T01:23:54.613Z,0.70
2023-01-17T01:26:39.395Z,0.63
2023-01-17T01:29:24.236Z,0.70
2023-01-17T01:32:10.462Z,0.77
2023-01-17T01:34:37.784Z,0.67
2023-01-17T01:37:05.137Z,0.70
2023-01-17T01:39:32.472Z,0.60
2023-01-17T01:41:59.781Z,0.70
2023-01-17T01:44:47.508Z,0.50
2023-01-17T01:47:23.853Z,0.60
2023-01-17T01:49:51.468Z,0.60
2023-01-17T01:52:19.897Z,0.60
2023-01-17T01:54:49.752Z,0.60
2023-01-17T01:57:19.387Z,0.70
2023-01-17T01:59:48.628Z,0.60
2023-01-17T02:02:17.336Z,0.70
2023-01-17T02:04:45.210Z,0.50
2023-01-17T02:07:14.720Z,0.50
2023-01-17T02:09:42.433Z,0.60
2023-01-17T02:12:10.001Z,0.70
2023-01-17T02:14:37.378Z,0.57
2023-01-17T02:17:13.797Z,0.60
2023-01-17T02:20:02.096Z,0.60
2023-01-17T02:22:47.419Z,0.60
2023-01-17T02:25:24.541Z,0.83
2023-01-17T02:28:04.075Z,0.90
2023-01-17T02:30:36.550Z,0.80
2023-01-17T02:33:07.420Z,0.80
2023-01-17T02:35:39.017Z,0.63
2023-01-17T02:38:11.228Z,0.80
2023-01-17T02:40:40.249Z,1.10
2023-01-17T02:43:09.447Z,1.20
2023-01-17T02:45:38.512Z,1.10
2023-01-17T02:48:08.081Z,1.10
2023-01-17T02:50:44.876Z,1.20
2023-01-17T02:53:22.200Z,1.17
2023-01-17T02:55:55.223Z,1.30
2023-01-17T02:58:35.487Z,1.10
2023-01-17T03:01:09.532Z,1.40
2023-01-17T03:03:41.212Z,1.20
2023-01-17T03:06:12.103Z,1.20
2023-01-17T03:08:40.428Z,1.10
2023-01-17T03:11:08.334Z,1.20
2023-01-17T03:13:35.677Z,1.43
2023-01-17T03:16:03.697Z,1.10
2023-01-17T03:18:32.394Z,0.90
2023-01-17T03:20:59.730Z,0.80
2023-01-17T03:23:27.076Z,0.90
2023-01-17T03:25:54.427Z,0.90
2023-01-17T03:28:21.778Z,0.90
2023-01-17T03:30:49.252Z,0.90
2023-01-17T03:33:17.370Z,1.00
2023-01-17T03:35:47.250Z,0.80
2023-01-17T03:38:14.609Z,0.80
2023-01-17T03:40:42.416Z,0.80
2023-01-17T03:43:09.769Z,0.83
2023-01-17T03:45:37.217Z,0.87
2023-01-17T03:48:04.709Z,1.07
2023-01-17T03:50:32.045Z,1.00
2023-01-17T03:53:00.732Z,1.17
2023-01-17T03:55:28.176Z,0.93
2023-01-17T03:57:55.531Z,1.00
2023-01-17T04:00:22.994Z,1.20
2023-01-17T04:02:50.394Z,1.00
2023-01-17T04:05:17.969Z,1.00
2023-01-17T04:07:45.316Z,1.00
2023-01-17T04:10:14.025Z,0.90
2023-01-17T04:12:41.585Z,1.03
2023-01-17T04:15:09.131Z,1.20
2023-01-17T04:17:36.497Z,1.00
2023-01-17T04:20:03.981Z,0.90
2023-01-17T04:22:32.187Z,1.00
2023-01-17T04:24:59.527Z,1.00
2023-01-17T04:27:28.243Z,1.00
2023-01-17T04:29:55.607Z,1.00
2023-01-17T04:32:23.049Z,0.83
2023-01-17T04:34:50.361Z,0.90
2023-01-17T04:37:17.731Z,0.80
2023-01-17T04:39:45.709Z,0.90
2023-01-17T04:42:13.051Z,0.90
2023-01-17T04:44:41.748Z,0.60
2023-01-17T04:47:09.088Z,0.70
2023-01-17T04:49:36.444Z,0.80
2023-01-17T04:52:03.769Z,0.70
2023-01-17T04:54:31.098Z,0.70
2023-01-17T04:56:58.426Z,0.60
2023-01-17T04:59:25.770Z,0.60
2023-01-17T05:01:54.431Z,0.60
2023-01-17T05:04:21.779Z,0.70
2023-01-17T05:06:49.134Z,0.63
2023-01-17T05:09:16.446Z,0.90
2023-01-17T05:11:43.786Z,1.73
2023-01-17T05:14:11.204Z,1.10
2023-01-17T05:16:38.547Z,1.37
2023-01-17T05:19:07.250Z,0.90
2023-01-17T05:21:34.794Z,0.83
2023-01-17T05:24:02.128Z,1.00
2023-01-17T05:26:29.482Z,0.90
2023-01-17T05:28:56.803Z,0.70
2023-01-17T05:31:24.293Z,0.70
2023-01-17T05:33:51.706Z,0.70
2023-01-17T05:36:21.227Z,0.60
2023-01-17T05:38:48.642Z,0.70
2023-01-17T05:41:15.971Z,0.80
2023-01-17T05:43:43.385Z,0.80
2023-01-17T05:46:10.793Z,0.80
2023-01-17T05:48:38.141Z,0.70
2023-01-17T05:51:05.559Z,0.87
2023-01-17T05:53:34.255Z,1.10
2023-01-17T05:56:01.638Z,0.90
2023-01-17T05:58:29.051Z,1.00
2023-01-17T06:00:56.772Z,1.03
2023-01-17T06:03:24.184Z,0.80
2023-01-17T06:05:51.578Z,1.80
2023-01-17T06:08:18.909Z,1.80
2023-01-17T06:10:47.585Z,0.93
2023-01-17T06:13:20.654Z,1.10
2023-01-17T06:15:48.532Z,0.60
2023-01-17T06:18:16.725Z,1.50
2023-01-17T06:20:44.428Z,1.80
2023-01-17T06:23:12.970Z,1.40
2023-01-17T06:25:41.485Z,2.00
2023-01-17T06:28:10.718Z,0.60
2023-01-17T06:30:38.185Z,0.80
2023-01-17T06:33:05.638Z,0.43
2023-01-17T06:35:33.426Z,0.53
2023-01-17T06:38:00.807Z,0.43
2023-01-17T06:40:29.178Z,0.43
2023-01-17T06:43:00.508Z,0.40
2023-01-17T06:45:29.739Z,0.50
2023-01-17T06:47:59.249Z,0.30
2023-01-17T06:50:26.873Z,0.37
2023-01-17T06:52:58.139Z,0.23
2023-01-17T06:55:26.565Z,0.40
2023-01-17T06:57:54.544Z,0.23
2023-01-17T07:00:22.312Z,0.50
2023-01-17T07:02:51.216Z,2.50
2023-01-17T07:05:18.758Z,1.47
2023-01-17T07:07:46.631Z,1.63
2023-01-17T07:10:14.866Z,0.60
2023-01-17T07:12:42.460Z,0.60
2023-01-17T07:15:10.555Z,0.80
2023-01-17T07:17:37.927Z,0.63
2023-01-17T07:20:07.426Z,0.50
2023-01-17T07:22:35.334Z,0.40
2023-01-17T07:25:02.720Z,0.47
2023-01-17T07:27:31.087Z,0.50
2023-01-17T07:29:58.524Z,0.50
2023-01-17T07:32:26.634Z,0.80
2023-01-17T07:34:54.131Z,0.60
2023-01-17T07:37:22.845Z,0.60
2023-01-17T07:39:50.280Z,0.60
2023-01-17T07:42:17.656Z,0.60
2023-01-17T07:44:45.178Z,0.57
2023-01-17T07:47:12.729Z,0.40
2023-01-17T07:49:40.092Z,0.50
2023-01-17T07:52:07.665Z,0.70
2023-01-17T07:54:36.460Z,0.50
2023-01-17T07:57:04.135Z,0.40
2023-01-17T07:59:33.713Z,0.50
2023-01-17T08:02:01.199Z,0.50
2023-01-17T08:04:34.495Z,0.60
2023-01-17T08:07:02.757Z,0.40
2023-01-17T08:09:30.230Z,0.50
2023-01-17T08:11:58.942Z,0.40
2023-01-17T08:14:26.297Z,0.60
2023-01-17T08:16:53.754Z,0.70
2023-01-17T08:19:22.369Z,0.73
2023-01-17T08:21:49.706Z,0.93
2023-01-17T08:24:17.096Z,1.00
2023-01-17T08:26:44.456Z,0.80
2023-01-17T08:29:13.136Z,0.80
2023-01-17T08:31:40.562Z,0.80
2023-01-17T08:34:07.983Z,0.87
2023-01-17T08:36:35.361Z,0.87
2023-01-17T08:39:02.672Z,1.20
2023-01-17T08:41:30.052Z,1.77
2023-01-17T08:43:57.410Z,1.80
2023-01-17T08:46:26.259Z,1.30
2023-01-17T08:48:54.027Z,1.13
2023-01-17T08:51:21.481Z,1.00
2023-01-17T08:53:49.367Z,1.10
2023-01-17T08:56:16.746Z,1.63
2023-01-17T08:58:44.111Z,1.20
2023-01-17T09:01:11.526Z,1.20
2023-01-17T09:03:41.042Z,1.10
2023-01-17T09:06:09.444Z,1.20
2023-01-17T09:08:37.126Z,1.10
2023-01-17T09:11:04.846Z,1.50
2023-01-17T09:13:32.200Z,1.10
2023-01-17T09:15:59.974Z,1.90
2023-01-17T09:18:27.798Z,1.40
2023-01-17T09:20:59.079Z,1.00
2023-01-17T09:23:28.088Z,1.40
2023-01-17T09:25:55.972Z,1.60
2023-01-17T09:28:23.620Z,1.40
2023-01-17T09:30:51.025Z,2.20
2023-01-17T09:33:18.566Z,1.50
2023-01-17T09:35:46.223Z,1.50
2023-01-17T09:38:15.167Z,1.40
2023-01-17T09:40:44.065Z,1.40
2023-01-17T09:43:23.174Z,1.30
2023-01-17T09:45:51.167Z,1.40
2023-01-17T09:48:22.415Z,1.70
2023-01-17T09:50:51.497Z,3.27
2023-01-17T09:53:21.411Z,2.60
2023-01-17T09:55:53.009Z,1.80
2023-01-17T09:58:21.219Z,1.57
2023-01-17T10:00:56.145Z,1.90
2023-01-17T10:03:38.506Z,1.20
2023-01-17T10:06:12.556Z,1.40
2023-01-17T10:08:50.804Z,1.40
2023-01-17T10:11:24.066Z,1.67
2023-01-17T10:13:56.668Z,1.90
2023-01-17T10:16:31.530Z,1.77
2023-01-17T10:19:14.806Z,1.80
2023-01-17T10:21:50.444Z,2.10
2023-01-17T10:24:36.585Z,2.00
2023-01-17T10:27:04.486Z,1.70
2023-01-17T10:29:33.993Z,1.40
2023-01-17T10:32:02.322Z,1.53
2023-01-17T10:34:33.949Z,1.30
2023-01-17T10:37:02.852Z,2.10
2023-01-17T10:39:31.642Z,1.70
2023-01-17T10:42:02.866Z,1.90
2023-01-17T10:44:34.063Z,2.20
2023-01-17T10:47:06.105Z,2.70
2023-01-17T10:49:33.702Z,1.80
2023-01-17T10:52:04.741Z,2.00
2023-01-17T10:54:41.205Z,2.00
2023-01-17T10:57:14.096Z,2.00
2023-01-17T10:59:41.553Z,1.90
2023-01-17T11:02:16.198Z,1.70
2023-01-17T11:04:45.010Z,1.87
2023-01-17T11:07:14.016Z,1.90
2023-01-17T11:09:42.423Z,1.57
2023-01-17T11:12:19.035Z,1.50
2023-01-17T11:14:52.163Z,1.70
2023-01-17T11:17:20.328Z,1.80
2023-01-17T11:19:51.157Z,1.83
2023-01-17T11:22:18.780Z,1.53
2023-01-17T11:24:49.359Z,1.63
2023-01-17T11:27:25.510Z,2.20
2023-01-17T11:30:02.996Z,2.17
2023-01-17T11:32:31.979Z,2.07
2023-01-17T11:35:06.825Z,1.83
2023-01-17T11:37:35.000Z,1.80
2023-01-17T11:40:08.124Z,2.20
2023-01-17T11:42:37.698Z,2.27
2023-01-17T11:45:24.007Z,2.40
2023-01-17T11:48:04.769Z,2.50
2023-01-17T11:50:32.139Z,2.10
2023-01-17T11:53:05.921Z,2.90
2023-01-17T11:55:33.302Z,1.40
2023-01-17T11:58:02.076Z,1.57
2023-01-17T12:00:34.243Z,1.77
2023-01-17T12:03:11.365Z,1.63
2023-01-17T12:05:44.065Z,1.50
2023-01-17T12:08:18.400Z,1.80
2023-01-17T12:10:49.372Z,1.43
2023-01-17T12:13:40.010Z,1.53
2023-01-17T12:16:30.385Z,1.30
2023-01-17T12:19:04.575Z,1.57
2023-01-17T12:21:39.479Z,1.53
2023-01-17T12:24:16.522Z,1.20
2023-01-17T12:26:46.282Z,1.10
2023-01-17T12:29:27.040Z,1.20
2023-01-17T12:31:59.539Z,1.50
2023-01-17T12:34:29.434Z,1.20
2023-01-17T12:37:00.309Z,1.30
2023-01-17T12:39:29.880Z,1.27
2023-01-17T12:42:00.616Z,1.40
2023-01-17T12:44:40.011Z,1.53
2023-01-17T12:47:07.381Z,1.43
2023-01-17T12:49:38.006Z,2.03
2023-01-17T12:52:08.189Z,1.70
2023-01-17T12:54:37.466Z,1.70
2023-01-17T12:57:07.226Z,1.53
2023-01-17T12:59:39.205Z,1.60
2023-01-17T13:02:17.113Z,1.57
2023-01-17T13:04:58.472Z,1.70
2023-01-17T13:07:30.805Z,1.40
2023-01-17T13:10:01.625Z,1.60
2023-01-17T13:12:30.857Z,1.53
2023-01-17T13:14:59.798Z,1.43
2023-01-17T13:17:31.560Z,1.20
2023-01-17T13:20:00.946Z,1.23
2023-01-17T13:22:28.753Z,1.53
2023-01-17T13:25:00.308Z,1.20
2023-01-17T13:27:39.459Z,1.20
2023-01-17T13:30:22.168Z,1.30
2023-01-17T13:33:02.175Z,1.43
2023-01-17T13:35:42.688Z,1.40
2023-01-17T13:38:17.368Z,1.20
2023-01-17T13:40:50.534Z,1.57
2023-01-17T13:43:20.325Z,1.50
2023-01-17T13:45:53.430Z,1.50
2023-01-17T13:48:28.134Z,1.70
2023-01-17T13:50:56.523Z,1.80
2023-01-17T13:53:57.306Z,1.30
2023-01-17T13:56:29.320Z,1.47
2023-01-17T13:59:02.676Z,1.37
2023-01-17T14:01:47.987Z,1.40
2023-01-17T14:04:16.732Z,1.30
2023-01-17T14:06:45.303Z,1.40
2023-01-17T14:09:15.905Z,1.50
2023-01-17T14:12:03.025Z,1.50
2023-01-17T14:14:52.139Z,1.40
2023-01-17T14:17:49.827Z,1.40
2023-01-17T14:20:44.116Z,1.50
2023-01-17T14:23:30.275Z,1.60
2023-01-17T14:26:00.137Z,1.90
2023-01-17T14:28:30.998Z,1.60
2023-01-17T14:31:00.010Z,1.30
2023-01-17T14:33:29.618Z,1.60
2023-01-17T14:35:57.859Z,1.70
2023-01-17T14:38:26.142Z,1.37
2023-01-17T14:40:55.886Z,1.23
2023-01-17T14:43:25.560Z,1.20
2023-01-17T14:45:57.770Z,1.20
2023-01-17T14:48:25.489Z,1.70
2023-01-17T14:50:54.038Z,1.60
2023-01-17T14:53:22.093Z,1.70
2023-01-17T14:55:55.025Z,1.50
2023-01-17T14:58:25.010Z,1.40
2023-01-17T15:00:56.381Z,1.20
2023-01-17T15:03:23.885Z,1.00
2023-01-17T15:05:52.573Z,1.20
2023-01-17T15:08:21.318Z,1.10
2023-01-17T15:10:49.681Z,1.30
2023-01-17T15:13:21.343Z,1.30
2023-01-17T15:16:03.683Z,1.70
2023-01-17T15:18:36.160Z,1.47
2023-01-17T15:21:07.655Z,1.20
2023-01-17T15:23:37.337Z,1.83
2023-01-17T15:26:05.542Z,1.73
2023-01-17T15:28:33.787Z,1.43
2023-01-17T15:31:06.975Z,1.20
2023-01-17T15:33:35.122Z,1.20
2023-01-17T15:36:03.420Z,1.30
2023-01-17T15:38:38.465Z,1.57
2023-01-17T15:41:08.968Z,2.07
2023-01-17T15:43:36.396Z,1.53
2023-01-17T15:46:04.869Z,1.30
2023-01-17T15:48:37.725Z,1.50
2023-01-17T15:51:05.144Z,1.30
2023-01-17T15:53:33.830Z,2.00
2023-01-17T15:56:01.566Z,1.87
2023-01-17T15:58:29.975Z,2.13
2023-01-17T16:00:57.797Z,2.00
2023-01-17T16:03:26.182Z,1.90
2023-01-17T16:05:57.593Z,2.37
2023-01-17T16:08:29.832Z,2.53
2023-01-17T16:11:01.732Z,2.80
2023-01-17T16:13:29.893Z,4.23
2023-01-17T16:16:17.102Z,3.70
2023-01-17T16:18:46.462Z,4.00
2023-01-17T16:21:18.625Z,3.77
2023-01-17T16:23:46.060Z,3.50
2023-01-17T16:26:13.463Z,3.53
2023-01-17T16:28:40.804Z,3.00
2023-01-17T16:31:08.176Z,3.83
2023-01-17T16:33:35.613Z,3.40
2023-01-17T16:36:02.959Z,4.67
2023-01-17T16:38:32.363Z,4.33
2023-01-17T16:40:59.920Z,4.90
2023-01-17T16:43:27.297Z,4.63
2023-01-17T16:45:55.653Z,4.63
2023-01-17T16:48:23.017Z,4.50
2023-01-17T16:50:53.055Z,4.67
2023-01-17T16:53:24.341Z,5.37
2023-01-17T16:55:54.392Z,5.70
2023-01-17T16:58:21.749Z,5.97
2023-01-17T17:00:49.459Z,6.57
2023-01-17T17:03:17.590Z,6.70
2023-01-17T17:05:47.134Z,6.63
2023-01-17T17:08:15.297Z,5.20
2023-01-17T17:10:42.624Z,5.63
2023-01-17T17:13:11.368Z,6.63
2023-01-17T17:15:41.425Z,5.87
2023-01-17T17:18:12.447Z,6.27
2023-01-17T17:20:40.139Z,6.10
2023-01-17T17:23:07.529Z,6.03
2023-01-17T17:25:34.937Z,4.93
2023-01-17T17:28:02.293Z,5.77
2023-01-17T17:30:32.072Z,6.00
2023-01-17T17:32:59.485Z,6.03
2023-01-17T17:35:26.824Z,5.83
2023-01-17T17:37:54.561Z,5.40
2023-01-17T17:40:22.125Z,5.27
2023-01-17T17:42:49.480Z,5.60
2023-01-17T17:45:16.862Z,6.63
2023-01-17T17:47:45.760Z,13.17
2023-01-17T17:50:14.091Z,5.83
2023-01-17T17:52:44.057Z,7.07
2023-01-17T17:55:13.039Z,7.10
2023-01-17T17:57:40.453Z,9.00
2023-01-17T18:00:08.755Z,11.50
2023-01-17T18:02:36.081Z,10.60
2023-01-17T18:05:05.203Z,6.90
2023-01-17T18:07:33.180Z,7.70
2023-01-17T18:10:00.617Z,9.03
2023-01-17T18:12:27.969Z,6.60
2023-01-17T18:14:55.355Z,7.53
2023-01-17T18:17:22.670Z,7.80
2023-01-17T18:19:50.045Z,7.80
2023-01-17T18:22:18.719Z,7.53
2023-01-17T18:24:46.257Z,7.53
2023-01-17T18:27:13.972Z,7.70
2023-01-17T18:29:41.319Z,7.50
2023-01-17T18:32:08.688Z,7.23
2023-01-17T18:34:39.229Z,7.57
2023-01-17T18:37:06.617Z,7.53
2023-01-17T18:39:35.303Z,7.53
2023-01-17T18:42:02.891Z,6.97
2023-01-17T18:44:30.737Z,6.90
2023-01-17T18:47:01.830Z,7.33
2023-01-17T18:49:29.212Z,7.17
2023-01-17T18:51:56.541Z,7.17
2023-01-17T18:54:23.945Z,7.17
2023-01-17T18:56:52.649Z,6.37
2023-01-17T18:59:21.327Z,7.97
2023-01-17T19:01:48.799Z,9.80
2023-01-17T19:04:17.210Z,7.53
2023-01-17T19:06:45.625Z,8.07
2023-01-17T19:09:13.947Z,7.83
2023-01-17T19:11:42.960Z,8.00
2023-01-17T19:14:12.147Z,10.67
2023-01-17T19:16:40.667Z,8.30
2023-01-17T19:19:08.832Z,9.63
2023-01-17T19:21:36.361Z,11.83
2023-01-17T19:24:04.304Z,11.43
2023-01-17T19:26:31.631Z,10.67
2023-01-17T19:28:59.996Z,9.90
2023-01-17T19:31:29.441Z,9.80
2023-01-17T19:33:57.866Z,9.80
2023-01-17T19:36:26.113Z,12.17
2023-01-17T19:39:03.976Z,11.33
2023-01-17T19:41:32.511Z,10.63
2023-01-17T19:44:00.656Z,10.13
2023-01-17T19:46:29.482Z,9.67
2023-01-17T19:48:57.320Z,9.73
2023-01-17T19:51:25.383Z,9.67
2023-01-17T19:53:53.528Z,10.27
2023-01-17T19:56:21.629Z,11.13
2023-01-17T19:58:49.035Z,9.43
2023-01-17T20:01:17.309Z,11.80
2023-01-17T20:03:47.002Z,11.27
2023-01-17T20:06:15.681Z,10.33
2023-01-17T20:08:43.398Z,13.43
2023-01-17T20:11:13.389Z,14.33
2023-01-17T20:13:41.095Z,13.17
2023-01-17T20:16:09.419Z,12.40
2023-01-17T20:18:37.151Z,15.20
2023-01-17T20:21:06.855Z,14.30
2023-01-17T20:23:35.266Z,14.73
2023-01-17T20:26:04.495Z,15.83
2023-01-17T20:28:32.812Z,16.37
2023-01-17T20:31:05.548Z,15.90
2023-01-17T20:33:33.239Z,14.07
2023-01-17T20:36:10.176Z,14.63
2023-01-17T20:38:44.565Z,13.07
2023-01-17T20:41:12.544Z,18.70
